Time;durP1;ratioP1;P1;durP2;ratioP2;P2;SDS_P1;SDS_P2;PMS_P1;PMS_P2;Temp;Humidity;BMP_temperature;BMP_pressure;BME280_temperature;BME280_humidity;BME280_pressure;Samples;Min_cycle;Max_cycle;Signal;HPM_P1;HPM_P2
2023/12/14 00:00:23;;;;;;;;;;;4.80;99.90;;;;;;4949785;28;19929;-68
2023/12/14 00:02:49;;;;;;;;;;;4.80;99.90;;;;;;4998224;28;19932;-66
2023/12/14 00:05:15;;;;;;;;;;;4.80;99.90;;;;;;4998326;28;19925;-66
2023/12/14 00:07:41;;;;;;;;;;;4.80;99.90;;;;;;4981070;28;19932;-66
2023/12/14 00:10:07;;;;;;;;;;;4.80;99.90;;;;;;4980341;28;20598;-66
2023/12/14 00:12:33;;;;;;;;;;;4.80;99.90;;;;;;4954000;28;21276;-66
2023/12/14 00:14:59;;;;;;;;;;;4.80;99.90;;;;;;4978056;28;20415;-67
2023/12/14 00:17:25;;;;;;;;;;;4.80;99.90;;;;;;4950686;28;19929;-65
2023/12/14 00:19:51;;;;;;;;;;;4.80;99.90;;;;;;4957961;28;20465;-67
2023/12/14 00:22:17;;;;;;;;;;;4.80;99.90;;;;;;4931634;28;19925;-67
2023/12/14 00:24:43;;;;;;;;;;;4.80;99.90;;;;;;4963295;28;19937;-66
2023/12/14 00:27:08;;;;;;;;;;;4.70;99.90;;;;;;4985008;28;20318;-67
2023/12/14 00:29:34;;;;;;;;;;;4.80;99.90;;;;;;4989826;28;20664;-67
2023/12/14 00:32:00;;;;;;;;;;;4.80;99.90;;;;;;4959951;28;19948;-66
2023/12/14 00:34:26;;;;;;;;;;;4.70;99.90;;;;;;4965983;28;20666;-66
2023/12/14 00:36:52;;;;;;;;;;;4.70;99.90;;;;;;4947071;28;19925;-66
2023/12/14 00:39:18;;;;;;;;;;;4.70;99.90;;;;;;4965734;28;19936;-66
2023/12/14 00:41:44;;;;;;;;;;;4.70;99.90;;;;;;4941891;28;19933;-66
2023/12/14 00:44:10;;;;;;;;;;;4.70;99.90;;;;;;4965942;28;20906;-66
2023/12/14 00:46:36;;;;;;;;;;;4.70;99.90;;;;;;4955230;28;19924;-66
2023/12/14 00:49:02;;;;;;;;;;;4.70;99.90;;;;;;4989480;28;20682;-67
2023/12/14 00:51:28;;;;;;;;;;;4.70;99.90;;;;;;4963445;28;20507;-66
2023/12/14 00:53:54;;;;;;;;;;;4.70;99.90;;;;;;4966039;28;19944;-66
2023/12/14 00:56:19;;;;;;;;;;;4.70;99.90;;;;;;4968938;28;20636;-66
2023/12/14 00:58:45;;;;;;;;;;;4.70;99.90;;;;;;4986705;28;19925;-66
2023/12/14 01:01:11;;;;;;;;;;;4.70;99.90;;;;;;4960899;28;21162;-67
2023/12/14 01:03:37;;;;;;;;;;;4.60;99.90;;;;;;4982818;28;19925;-67
2023/12/14 01:06:03;;;;;;;;;;;4.70;99.90;;;;;;4958755;28;21276;-66
2023/12/14 01:08:29;;;;;;;;;;;4.70;99.90;;;;;;4982767;28;19932;-66
2023/12/14 01:10:55;;;;;;;;;;;4.60;99.90;;;;;;4956068;28;20344;-67
2023/12/14 01:13:21;;;;;;;;;;;4.60;99.90;;;;;;4981012;28;19924;-67
2023/12/14 01:15:47;;;;;;;;;;;4.60;99.90;;;;;;4959643;28;20469;-67
2023/12/14 01:18:13;;;;;;;;;;;4.60;99.90;;;;;;5013089;28;19932;-67
2023/12/14 01:20:39;;;;;;;;;;;4.60;99.90;;;;;;4969003;28;19942;-66
2023/12/14 01:23:05;;;;;;;;;;;4.50;99.90;;;;;;5006720;28;19956;-67
2023/12/14 01:25:30;;;;;;;;;;;4.60;99.90;;;;;;4957527;28;19929;-67
2023/12/14 01:27:56;;;;;;;;;;;4.50;99.90;;;;;;4978319;28;20343;-66
2023/12/14 01:30:23;;;;;;;;;;;4.50;99.90;;;;;;4950084;28;19936;-66
2023/12/14 01:32:49;;;;;;;;;;;4.60;99.90;;;;;;4996306;28;19925;-66
2023/12/14 01:35:15;;;;;;;;;;;4.50;99.90;;;;;;4970453;28;19933;-67
2023/12/14 01:37:41;;;;;;;;;;;4.50;99.90;;;;;;4948635;28;19952;-67
2023/12/14 01:40:07;;;;;;;;;;;4.50;99.90;;;;;;4978888;28;20434;-66
2023/12/14 01:42:33;;;;;;;;;;;4.60;99.90;;;;;;4974641;28;19965;-66
2023/12/14 01:44:59;;;;;;;;;;;4.50;99.90;;;;;;4989914;28;19931;-66
2023/12/14 01:47:25;;;;;;;;;;;4.50;99.90;;;;;;4990155;28;19971;-66
2023/12/14 01:49:51;;;;;;;;;;;4.50;99.90;;;;;;4987918;28;20855;-67
2023/12/14 01:52:17;;;;;;;;;;;4.50;99.90;;;;;;4949039;28;19932;-66
2023/12/14 01:54:43;;;;;;;;;;;4.50;99.90;;;;;;4990138;28;20204;-66
2023/12/14 01:57:09;;;;;;;;;;;4.50;99.90;;;;;;4937585;28;21032;-66
2023/12/14 01:59:35;;;;;;;;;;;4.60;99.90;;;;;;4958570;28;19940;-66
2023/12/14 02:02:02;;;;;;;;;;;4.60;99.90;;;;;;4964525;28;19959;-67
2023/12/14 02:04:28;;;;;;;;;;;4.60;99.90;;;;;;4991306;28;19925;-67
2023/12/14 02:06:54;;;;;;;;;;;4.50;99.90;;;;;;4955621;28;19940;-66
2023/12/14 02:09:20;;;;;;;;;;;4.60;99.90;;;;;;4962271;28;20783;-66
2023/12/14 02:11:46;;;;;;;;;;;4.50;99.90;;;;;;4933611;28;20150;-67
2023/12/14 02:14:12;;;;;;;;;;;4.50;99.90;;;;;;4957527;28;19940;-66
2023/12/14 02:16:38;;;;;;;;;;;4.60;99.90;;;;;;4940845;28;19940;-67
2023/12/14 02:19:07;;;;;;;;;;;4.60;99.90;;;;;;4956182;28;19940;-67
2023/12/14 02:21:33;;;;;;;;;;;4.60;99.90;;;;;;4941517;28;20528;-66
2023/12/14 02:23:59;;;;;;;;;;;4.60;99.90;;;;;;4956902;28;20475;-67
2023/12/14 02:26:25;;;;;;;;;;;4.60;99.90;;;;;;4964507;28;20022;-66
2023/12/14 02:28:51;;;;;;;;;;;4.60;99.90;;;;;;5001190;28;19924;-66
2023/12/14 02:31:17;;;;;;;;;;;4.60;99.90;;;;;;4958201;28;19924;-66
2023/12/14 02:33:43;;;;;;;;;;;4.60;99.90;;;;;;4970199;28;20920;-67
2023/12/14 02:36:09;;;;;;;;;;;4.60;99.90;;;;;;4940456;28;19935;-66
2023/12/14 02:38:35;;;;;;;;;;;4.50;99.90;;;;;;4989947;28;19929;-66
2023/12/14 02:41:01;;;;;;;;;;;4.60;99.90;;;;;;4957381;28;20334;-67
2023/12/14 02:43:27;;;;;;;;;;;4.50;99.90;;;;;;4993521;28;19925;-69
2023/12/14 02:45:55;;;;;;;;;;;4.60;99.90;;;;;;4956053;28;20454;-67
2023/12/14 02:48:20;;;;;;;;;;;4.60;99.90;;;;;;4992489;28;19932;-67
2023/12/14 02:50:46;;;;;;;;;;;4.50;99.90;;;;;;4955795;28;19932;-67
2023/12/14 02:53:12;;;;;;;;;;;4.60;99.90;;;;;;4992124;28;20415;-66
2023/12/14 02:55:38;;;;;;;;;;;4.50;99.90;;;;;;4983529;28;19934;-66
2023/12/14 02:58:04;;;;;;;;;;;4.50;99.90;;;;;;4989690;28;20379;-66
2023/12/14 03:00:30;;;;;;;;;;;4.50;99.90;;;;;;4951172;28;19925;-68
2023/12/14 03:02:56;;;;;;;;;;;4.50;99.90;;;;;;4979135;28;20462;-66
2023/12/14 03:05:22;;;;;;;;;;;4.60;99.90;;;;;;4948655;28;19932;-66
2023/12/14 03:07:48;;;;;;;;;;;4.50;99.90;;;;;;4980833;28;20008;-66
2023/12/14 03:10:14;;;;;;;;;;;4.50;99.90;;;;;;4971259;28;19925;-67
2023/12/14 03:12:39;;;;;;;;;;;4.50;99.90;;;;;;4979772;28;19932;-66
2023/12/14 03:15:05;;;;;;;;;;;4.50;99.90;;;;;;4975387;28;19933;-67
2023/12/14 03:17:31;;;;;;;;;;;4.50;99.90;;;;;;4969656;28;20034;-66
2023/12/14 03:19:57;;;;;;;;;;;4.50;99.90;;;;;;4977770;28;20493;-66
2023/12/14 03:22:23;;;;;;;;;;;4.50;99.90;;;;;;4968729;28;19935;-66
2023/12/14 03:24:49;;;;;;;;;;;4.50;99.90;;;;;;4982436;28;19929;-66
2023/12/14 03:27:15;;;;;;;;;;;4.50;99.90;;;;;;4963916;28;20618;-67
2023/12/14 03:29:41;;;;;;;;;;;4.50;99.90;;;;;;4976901;28;20075;-67
2023/12/14 03:32:07;;;;;;;;;;;4.50;99.90;;;;;;4965121;28;19924;-67
2023/12/14 03:34:33;;;;;;;;;;;4.50;99.90;;;;;;4977253;28;19964;-66
2023/12/14 03:36:59;;;;;;;;;;;4.50;99.90;;;;;;4965476;28;20031;-66
2023/12/14 03:39:24;;;;;;;;;;;4.50;99.90;;;;;;4980722;28;19968;-67
2023/12/14 03:41:50;;;;;;;;;;;4.50;99.90;;;;;;4961935;28;19924;-67
2023/12/14 03:44:16;;;;;;;;;;;4.50;99.90;;;;;;4979179;28;19941;-67
2023/12/14 03:46:42;;;;;;;;;;;4.50;99.90;;;;;;4960997;28;20004;-66
2023/12/14 03:49:08;;;;;;;;;;;4.50;99.90;;;;;;4985177;28;19929;-67
2023/12/14 03:51:34;;;;;;;;;;;4.50;99.90;;;;;;4963568;28;19924;-67
2023/12/14 03:54:00;;;;;;;;;;;4.50;99.90;;;;;;4986909;28;20001;-66
2023/12/14 03:56:26;;;;;;;;;;;4.50;99.90;;;;;;4954665;28;20644;-66
2023/12/14 03:58:52;;;;;;;;;;;4.50;99.90;;;;;;4981432;28;19935;-66
2023/12/14 04:01:19;;;;;;;;;;;4.50;99.90;;;;;;4961303;28;19935;-67
2023/12/14 04:03:45;;;;;;;;;;;4.50;99.90;;;;;;4984641;28;20939;-66
2023/12/14 04:06:14;;;;;;;;;;;4.50;99.90;;;;;;4967717;28;19925;-67
2023/12/14 04:08:43;;;;;;;;;;;4.50;99.90;;;;;;4999108;28;19932;-67
2023/12/14 04:11:09;;;;;;;;;;;4.50;99.90;;;;;;4966252;28;19929;-66
2023/12/14 04:13:36;;;;;;;;;;;4.50;99.90;;;;;;4985036;28;19929;-66
2023/12/14 04:16:02;;;;;;;;;;;4.50;99.90;;;;;;4955529;28;19936;-67
2023/12/14 04:18:28;;;;;;;;;;;4.50;99.90;;;;;;4993483;28;19940;-66
2023/12/14 04:20:54;;;;;;;;;;;4.50;99.90;;;;;;4958069;28;19925;-67
2023/12/14 04:23:20;;;;;;;;;;;4.50;99.90;;;;;;4992877;28;20772;-67
2023/12/14 04:25:46;;;;;;;;;;;4.50;99.90;;;;;;4956196;28;19928;-68
2023/12/14 04:28:12;;;;;;;;;;;4.50;99.90;;;;;;4996509;28;19935;-66
2023/12/14 04:30:38;;;;;;;;;;;4.50;99.90;;;;;;4957495;28;20717;-67
2023/12/14 04:33:04;;;;;;;;;;;4.50;99.90;;;;;;5003409;28;19925;-68
2023/12/14 04:35:31;;;;;;;;;;;4.50;99.90;;;;;;4954781;28;20467;-67
2023/12/14 04:37:57;;;;;;;;;;;4.50;99.90;;;;;;5024286;28;19932;-67
2023/12/14 04:40:23;;;;;;;;;;;4.50;99.90;;;;;;4951972;28;20549;-67
2023/12/14 04:42:48;;;;;;;;;;;4.50;99.90;;;;;;5001039;28;19924;-67
2023/12/14 04:45:16;;;;;;;;;;;4.50;99.90;;;;;;4977447;28;20661;-67
2023/12/14 04:47:42;;;;;;;;;;;4.50;99.90;;;;;;4985231;28;19925;-67
2023/12/14 04:50:08;;;;;;;;;;;4.50;99.90;;;;;;4978280;28;19940;-67
2023/12/14 04:52:34;;;;;;;;;;;4.50;99.90;;;;;;4975171;28;19925;-68
2023/12/14 04:55:00;;;;;;;;;;;4.40;99.90;;;;;;5013262;28;20115;-68
2023/12/14 04:57:26;;;;;;;;;;;4.50;99.90;;;;;;4970496;28;19988;-67
2023/12/14 04:59:52;;;;;;;;;;;4.40;99.90;;;;;;4981269;28;19925;-66
2023/12/14 05:02:18;;;;;;;;;;;4.50;99.90;;;;;;4974239;28;19935;-67
2023/12/14 05:04:44;;;;;;;;;;;4.50;99.90;;;;;;4980344;28;20031;-67
2023/12/14 05:07:10;;;;;;;;;;;4.50;99.90;;;;;;4973561;28;20331;-67
2023/12/14 05:09:36;;;;;;;;;;;4.50;99.90;;;;;;4977386;28;20751;-68
2023/12/14 05:12:02;;;;;;;;;;;4.50;99.90;;;;;;4964360;28;19962;-67
2023/12/14 05:14:29;;;;;;;;;;;4.50;99.90;;;;;;4978625;28;20437;-66
2023/12/14 05:16:55;;;;;;;;;;;4.50;99.90;;;;;;4951433;28;21802;-66
2023/12/14 05:19:21;;;;;;;;;;;4.50;99.90;;;;;;4960116;28;19925;-67
2023/12/14 05:21:47;;;;;;;;;;;4.50;99.90;;;;;;4954470;28;19924;-67
2023/12/14 05:24:13;;;;;;;;;;;4.50;99.90;;;;;;4979864;28;20427;-67
2023/12/14 05:26:38;;;;;;;;;;;4.50;99.90;;;;;;4968465;28;19931;-67
2023/12/14 05:29:04;;;;;;;;;;;4.50;99.90;;;;;;4979067;28;19929;-67
2023/12/14 05:31:30;;;;;;;;;;;4.50;99.90;;;;;;4962452;28;19924;-67
2023/12/14 05:33:56;;;;;;;;;;;4.50;99.90;;;;;;4985451;28;19935;-67
2023/12/14 05:36:22;;;;;;;;;;;4.50;99.90;;;;;;4962304;28;20529;-67
2023/12/14 05:38:48;;;;;;;;;;;4.50;99.90;;;;;;4987485;28;19949;-67
2023/12/14 05:41:14;;;;;;;;;;;4.50;99.90;;;;;;4953739;28;20422;-66
2023/12/14 05:43:40;;;;;;;;;;;4.50;99.90;;;;;;4980785;28;19925;-67
2023/12/14 05:46:06;;;;;;;;;;;4.50;99.90;;;;;;4985116;28;19924;-67
2023/12/14 05:48:32;;;;;;;;;;;4.50;99.90;;;;;;4985171;28;19936;-67
2023/12/14 05:50:59;;;;;;;;;;;4.50;99.90;;;;;;4959587;28;20486;-67
2023/12/14 05:53:25;;;;;;;;;;;4.50;99.90;;;;;;4990826;28;19929;-67
2023/12/14 05:55:51;;;;;;;;;;;4.50;99.90;;;;;;4956022;28;20410;-68
2023/12/14 05:58:18;;;;;;;;;;;4.50;99.90;;;;;;4988961;28;20035;-67
2023/12/14 06:00:44;;;;;;;;;;;4.50;99.90;;;;;;4952355;28;19925;-67
2023/12/14 06:03:10;;;;;;;;;;;4.50;99.90;;;;;;4976189;28;19932;-67
2023/12/14 06:05:36;;;;;;;;;;;4.50;99.90;;;;;;4951456;28;19930;-67
2023/12/14 06:08:02;;;;;;;;;;;4.50;99.90;;;;;;4994697;28;20379;-67
2023/12/14 06:10:29;;;;;;;;;;;4.50;99.90;;;;;;4951157;28;20518;-66
2023/12/14 06:12:55;;;;;;;;;;;4.50;99.90;;;;;;4967661;28;19925;-66
2023/12/14 06:15:21;;;;;;;;;;;4.50;99.90;;;;;;4950845;28;21062;-66
2023/12/14 06:17:47;;;;;;;;;;;4.50;99.90;;;;;;4983620;28;19929;-67
2023/12/14 06:20:13;;;;;;;;;;;4.50;99.90;;;;;;4974428;28;19935;-67
2023/12/14 06:22:39;;;;;;;;;;;4.50;99.90;;;;;;4951472;28;19995;-66
2023/12/14 06:25:05;;;;;;;;;;;4.50;99.90;;;;;;4976599;28;20078;-67
2023/12/14 06:27:31;;;;;;;;;;;4.50;99.90;;;;;;4968819;28;20460;-67
2023/12/14 06:29:57;;;;;;;;;;;4.50;99.90;;;;;;4974232;28;19940;-67
2023/12/14 06:32:23;;;;;;;;;;;4.50;99.90;;;;;;4969801;28;19925;-67
2023/12/14 06:34:49;;;;;;;;;;;4.50;99.90;;;;;;4975321;28;19925;-68
2023/12/14 06:37:15;;;;;;;;;;;4.50;99.90;;;;;;4976910;28;20840;-66
2023/12/14 06:39:42;;;;;;;;;;;4.50;99.90;;;;;;4972755;28;20271;-66
2023/12/14 06:42:08;;;;;;;;;;;4.50;99.90;;;;;;4967784;28;19932;-67
2023/12/14 06:44:34;;;;;;;;;;;4.50;99.90;;;;;;4974639;28;19929;-67
2023/12/14 06:47:00;;;;;;;;;;;4.50;99.90;;;;;;4952268;28;19932;-67
2023/12/14 06:49:26;;;;;;;;;;;4.50;99.90;;;;;;4978421;28;19929;-67
2023/12/14 06:51:52;;;;;;;;;;;4.50;99.90;;;;;;4961028;28;19937;-67
2023/12/14 06:54:24;;;;;;;;;;;4.50;99.90;;;;;;4981646;28;19929;-69
2023/12/14 06:56:49;;;;;;;;;;;4.50;99.90;;;;;;4964040;28;19955;-69
2023/12/14 06:59:15;;;;;;;;;;;4.50;99.90;;;;;;4984588;28;20596;-69
2023/12/14 07:01:41;;;;;;;;;;;4.50;99.90;;;;;;4935962;28;19947;-69
2023/12/14 07:04:08;;;;;;;;;;;4.50;99.90;;;;;;4979053;28;19929;-68
2023/12/14 07:06:35;;;;;;;;;;;4.50;99.90;;;;;;4961517;28;19924;-69
2023/12/14 07:09:01;;;;;;;;;;;4.50;99.90;;;;;;4981557;28;20021;-68
2023/12/14 07:11:27;;;;;;;;;;;4.50;99.90;;;;;;4948926;28;21115;-68
2023/12/14 07:13:53;;;;;;;;;;;4.50;99.90;;;;;;4969657;28;19926;-68
2023/12/14 07:16:19;;;;;;;;;;;4.60;99.90;;;;;;4964391;28;20957;-68
2023/12/14 07:18:45;;;;;;;;;;;4.50;99.90;;;;;;4992267;28;19932;-69
2023/12/14 07:21:11;;;;;;;;;;;4.60;99.90;;;;;;4961263;28;19925;-69
2023/12/14 07:23:37;;;;;;;;;;;4.60;99.90;;;;;;4990756;28;20438;-68
2023/12/14 07:26:03;;;;;;;;;;;4.60;99.90;;;;;;4954252;28;19932;-69
2023/12/14 07:28:29;;;;;;;;;;;4.60;99.90;;;;;;4980138;28;20598;-68
2023/12/14 07:30:55;;;;;;;;;;;4.60;99.90;;;;;;4955833;28;19935;-69
2023/12/14 07:33:21;;;;;;;;;;;4.60;99.90;;;;;;4995226;28;19925;-70
2023/12/14 07:35:47;;;;;;;;;;;4.60;99.90;;;;;;4942052;28;20422;-68
2023/12/14 07:38:13;;;;;;;;;;;4.60;99.90;;;;;;4997995;28;19925;-68
2023/12/14 07:40:40;;;;;;;;;;;4.60;99.90;;;;;;4957261;28;19936;-68
2023/12/14 07:43:05;;;;;;;;;;;4.60;99.90;;;;;;5001220;28;20209;-69
2023/12/14 07:45:31;;;;;;;;;;;4.60;99.90;;;;;;4956951;28;20701;-69
2023/12/14 07:47:58;;;;;;;;;;;4.60;99.90;;;;;;4985743;28;19947;-69
2023/12/14 07:50:24;;;;;;;;;;;4.60;99.90;;;;;;4955446;28;19925;-69
2023/12/14 07:52:50;;;;;;;;;;;4.60;99.90;;;;;;4999714;28;21078;-69
2023/12/14 07:55:17;;;;;;;;;;;4.60;99.90;;;;;;4969447;28;20333;-68
2023/12/14 07:57:43;;;;;;;;;;;4.60;99.90;;;;;;4987775;28;19925;-68
2023/12/14 08:00:10;;;;;;;;;;;4.60;99.90;;;;;;4983147;28;20872;-69
2023/12/14 08:02:36;;;;;;;;;;;4.60;99.90;;;;;;4976786;28;19936;-68
2023/12/14 08:05:02;;;;;;;;;;;4.60;99.90;;;;;;4993272;28;19932;-69
2023/12/14 08:07:29;;;;;;;;;;;4.60;99.90;;;;;;4960871;28;19936;-69
2023/12/14 08:09:55;;;;;;;;;;;4.60;99.90;;;;;;4964502;28;19925;-69
2023/12/14 08:12:22;;;;;;;;;;;4.60;99.90;;;;;;4949399;28;19925;-69
2023/12/14 08:14:48;;;;;;;;;;;4.70;99.90;;;;;;4962802;28;19925;-68
2023/12/14 08:17:14;;;;;;;;;;;4.70;99.90;;;;;;4956787;28;20425;-69
2023/12/14 08:19:40;;;;;;;;;;;4.60;99.90;;;;;;4962210;28;20564;-68
2023/12/14 08:22:07;;;;;;;;;;;4.60;99.90;;;;;;4947131;28;19925;-69
2023/12/14 08:24:33;;;;;;;;;;;4.70;99.90;;;;;;4964147;28;19937;-68
2023/12/14 08:26:59;;;;;;;;;;;4.60;99.90;;;;;;4962801;28;19929;-69
2023/12/14 08:29:25;;;;;;;;;;;4.70;99.90;;;;;;4968055;28;20394;-69
2023/12/14 08:31:50;;;;;;;;;;;4.70;99.90;;;;;;4935816;28;19929;-69
2023/12/14 08:34:16;;;;;;;;;;;4.70;99.90;;;;;;4964864;28;19940;-69
2023/12/14 08:36:42;;;;;;;;;;;4.70;99.90;;;;;;4951215;28;19933;-69
2023/12/14 08:39:08;;;;;;;;;;;4.70;99.90;;;;;;4964003;28;21006;-69
2023/12/14 08:41:34;;;;;;;;;;;4.70;99.90;;;;;;4949789;28;19946;-69
2023/12/14 08:44:00;;;;;;;;;;;4.80;99.90;;;;;;4990209;28;20422;-69
2023/12/14 08:46:26;;;;;;;;;;;4.80;99.90;;;;;;4961329;28;19925;-69
2023/12/14 08:48:52;;;;;;;;;;;4.80;99.90;;;;;;4989035;28;20865;-69
2023/12/14 08:51:20;;;;;;;;;;;4.80;99.90;;;;;;4963794;28;20380;-68
2023/12/14 08:53:46;;;;;;;;;;;4.80;99.90;;;;;;4992230;28;21247;-68
2023/12/14 08:56:12;;;;;;;;;;;4.90;99.90;;;;;;4963459;28;19933;-69
2023/12/14 08:58:38;;;;;;;;;;;4.90;99.90;;;;;;4992668;28;19928;-69
2023/12/14 09:01:04;;;;;;;;;;;4.90;99.90;;;;;;4956296;28;21111;-68
2023/12/14 09:03:30;;;;;;;;;;;4.90;99.90;;;;;;4982578;28;19932;-68
2023/12/14 09:05:56;;;;;;;;;;;5.00;99.90;;;;;;4956644;28;19936;-68
2023/12/14 09:08:21;;;;;;;;;;;5.00;99.90;;;;;;4996216;28;20011;-68
2023/12/14 09:10:47;;;;;;;;;;;5.00;99.90;;;;;;4957967;28;19924;-68
2023/12/14 09:13:13;;;;;;;;;;;5.00;99.90;;;;;;4995764;28;19932;-68
2023/12/14 09:15:39;;;;;;;;;;;5.10;99.90;;;;;;4958339;28;19929;-69
2023/12/14 09:18:06;;;;;;;;;;;5.10;99.90;;;;;;4987104;28;19933;-69
2023/12/14 09:20:31;;;;;;;;;;;5.10;99.90;;;;;;4960152;28;19932;-68
2023/12/14 09:22:57;;;;;;;;;;;5.20;99.90;;;;;;4987601;28;20012;-68
2023/12/14 09:25:24;;;;;;;;;;;5.10;99.90;;;;;;4993847;28;19925;-68
2023/12/14 09:27:50;;;;;;;;;;;5.10;99.90;;;;;;5012881;28;19932;-68
2023/12/14 09:30:17;;;;;;;;;;;5.20;99.90;;;;;;4971818;28;19932;-68
2023/12/14 09:32:43;;;;;;;;;;;5.10;99.90;;;;;;4975346;28;19936;-68
2023/12/14 09:35:09;;;;;;;;;;;5.10;99.90;;;;;;4982054;28;20280;-69
2023/12/14 09:37:35;;;;;;;;;;;5.10;99.90;;;;;;4984205;28;20034;-68
2023/12/14 09:40:02;;;;;;;;;;;5.20;99.90;;;;;;4979124;28;19925;-69
2023/12/14 09:42:28;;;;;;;;;;;5.20;99.90;;;;;;4971974;28;19936;-68
2023/12/14 09:44:56;;;;;;;;;;;5.20;99.90;;;;;;4980415;28;20397;-68
2023/12/14 09:47:22;;;;;;;;;;;5.20;99.90;;;;;;4971574;28;19932;-68
2023/12/14 09:49:49;;;;;;;;;;;5.30;99.90;;;;;;4988488;28;19936;-69
2023/12/14 09:52:15;;;;;;;;;;;5.30;99.90;;;;;;4968722;28;19928;-68
2023/12/14 09:54:41;;;;;;;;;;;5.30;99.90;;;;;;4965452;28;19929;-68
2023/12/14 09:57:06;;;;;;;;;;;5.30;99.90;;;;;;4980982;28;20007;-68
2023/12/14 09:59:32;;;;;;;;;;;5.30;99.90;;;;;;4989071;28;20548;-68
2023/12/14 10:02:11;;;;;;;;;;;5.40;99.90;;;;;;4957607;28;19935;-69
2023/12/14 10:04:37;;;;;;;;;;;5.40;99.90;;;;;;4981533;28;19940;-68
2023/12/14 10:07:06;;;;;;;;;;;5.40;99.90;;;;;;4958441;28;20159;-68
2023/12/14 10:09:33;;;;;;;;;;;5.40;99.90;;;;;;4978398;28;19936;-68
2023/12/14 10:12:04;;;;;;;;;;;5.40;99.90;;;;;;4977810;28;19935;-69
2023/12/14 10:14:30;;;;;;;;;;;5.40;99.90;;;;;;4983096;28;20597;-68
2023/12/14 10:16:55;;;;;;;;;;;5.40;99.90;;;;;;4966579;28;19929;-69
2023/12/14 10:19:21;;;;;;;;;;;5.40;99.90;;;;;;4978413;28;20728;-68
2023/12/14 10:21:48;;;;;;;;;;;5.40;99.90;;;;;;4973816;28;19924;-68
2023/12/14 10:24:15;;;;;;;;;;;5.40;99.90;;;;;;4988217;28;19945;-68
2023/12/14 10:26:41;;;;;;;;;;;5.40;99.90;;;;;;4956378;28;19958;-68
2023/12/14 10:29:07;;;;;;;;;;;5.40;99.90;;;;;;4986368;28;20000;-69
2023/12/14 10:31:37;;;;;;;;;;;5.40;99.90;;;;;;4975188;28;19957;-68
2023/12/14 10:34:03;;;;;;;;;;;5.40;99.90;;;;;;4974663;28;19936;-68
2023/12/14 10:36:30;;;;;;;;;;;5.40;99.90;;;;;;4963867;28;19928;-68
2023/12/14 10:39:00;;;;;;;;;;;5.40;99.90;;;;;;4984186;28;20231;-68
2023/12/14 10:41:28;;;;;;;;;;;5.40;99.90;;;;;;4962492;28;19924;-69
2023/12/14 10:43:55;;;;;;;;;;;5.60;99.90;;;;;;4982146;28;19932;-69
2023/12/14 10:46:22;;;;;;;;;;;5.60;99.90;;;;;;4959645;28;19926;-70
2023/12/14 10:48:49;;;;;;;;;;;5.60;99.90;;;;;;4952409;28;20989;-68
2023/12/14 10:51:17;;;;;;;;;;;5.60;99.90;;;;;;4962434;28;20408;-67
2023/12/14 10:53:47;;;;;;;;;;;5.70;99.90;;;;;;4982351;28;19925;-69
2023/12/14 10:56:13;;;;;;;;;;;5.70;99.90;;;;;;4958735;28;19939;-68
2023/12/14 10:58:50;;;;;;;;;;;5.80;99.90;;;;;;4981042;28;19942;-69
2023/12/14 11:01:18;;;;;;;;;;;5.80;99.90;;;;;;4952018;28;19936;-70
2023/12/14 11:03:44;;;;;;;;;;;5.90;99.90;;;;;;4989815;28;19932;-69
2023/12/14 11:06:28;;;;;;;;;;;5.90;99.90;;;;;;4958064;28;19925;-69
2023/12/14 11:08:55;;;;;;;;;;;6.00;99.90;;;;;;4989562;28;19948;-69
2023/12/14 11:11:21;;;;;;;;;;;5.90;99.90;;;;;;4951871;28;19925;-68
2023/12/14 11:13:50;;;;;;;;;;;5.90;99.90;;;;;;4986867;28;19948;-69
2023/12/14 11:16:16;;;;;;;;;;;6.00;99.90;;;;;;4954835;28;20589;-69
2023/12/14 11:18:42;;;;;;;;;;;6.10;99.90;;;;;;4980723;28;20022;-68
2023/12/14 11:21:08;;;;;;;;;;;6.10;99.90;;;;;;4953820;28;19936;-68
2023/12/14 11:23:35;;;;;;;;;;;6.10;99.90;;;;;;4960805;28;20046;-68
2023/12/14 11:26:05;;;;;;;;;;;6.10;99.90;;;;;;4947894;28;19933;-68
2023/12/14 11:28:36;;;;;;;;;;;6.10;99.90;;;;;;5005838;28;19925;-69
2023/12/14 11:31:06;;;;;;;;;;;6.10;99.90;;;;;;4960956;28;19932;-69
2023/12/14 11:33:32;;;;;;;;;;;6.20;99.90;;;;;;4982144;28;21136;-68
2023/12/14 11:35:58;;;;;;;;;;;6.30;99.90;;;;;;4949492;28;20487;-69
2023/12/14 11:38:24;;;;;;;;;;;6.40;99.90;;;;;;4947944;28;19940;-68
2023/12/14 11:40:50;;;;;;;;;;;6.40;99.90;;;;;;4940044;28;19924;-68
2023/12/14 11:43:16;;;;;;;;;;;6.50;99.90;;;;;;4988356;28;19925;-68
2023/12/14 11:45:43;;;;;;;;;;;6.50;99.90;;;;;;4962080;28;19924;-69
2023/12/14 11:48:10;;;;;;;;;;;6.50;99.90;;;;;;4995141;28;19929;-68
2023/12/14 11:50:37;;;;;;;;;;;6.40;99.90;;;;;;4969957;28;19952;-68
2023/12/14 11:53:03;;;;;;;;;;;6.40;99.90;;;;;;5002379;28;20588;-68
2023/12/14 11:55:30;;;;;;;;;;;6.40;99.90;;;;;;4956078;28;19929;-69
2023/12/14 11:57:57;;;;;;;;;;;6.40;99.90;;;;;;4997094;28;20904;-68
2023/12/14 12:00:23;;;;;;;;;;;6.40;99.90;;;;;;4953780;28;19932;-68
2023/12/14 12:02:49;;;;;;;;;;;6.40;99.90;;;;;;4993057;28;20678;-69
2023/12/14 12:05:18;;;;;;;;;;;6.30;99.90;;;;;;4970356;28;19925;-69
2023/12/14 12:07:47;;;;;;;;;;;6.40;99.90;;;;;;4978260;28;20097;-69
2023/12/14 12:10:13;;;;;;;;;;;6.40;99.90;;;;;;4977876;28;20870;-68
2023/12/14 12:12:39;;;;;;;;;;;6.40;99.90;;;;;;4986535;28;19929;-69
2023/12/14 12:15:05;;;;;;;;;;;6.40;99.90;;;;;;4977495;28;20483;-69
2023/12/14 12:17:37;;;;;;;;;;;6.70;99.90;;;;;;4949864;28;19932;-69
2023/12/14 12:20:04;;;;;;;;;;;6.90;99.90;;;;;;4980571;28;19925;-68
2023/12/14 12:22:30;;;;;;;;;;;6.80;99.90;;;;;;4968341;28;20494;-69
2023/12/14 12:24:56;;;;;;;;;;;6.80;99.90;;;;;;4981630;28;19925;-68
2023/12/14 12:27:22;;;;;;;;;;;6.70;99.90;;;;;;4984659;28;19951;-68
2023/12/14 12:29:50;;;;;;;;;;;6.70;99.90;;;;;;5012947;28;19940;-68
2023/12/14 12:32:16;;;;;;;;;;;6.50;99.90;;;;;;4971545;28;19948;-67
2023/12/14 12:34:42;;;;;;;;;;;6.40;99.90;;;;;;4978981;28;20438;-67
2023/12/14 12:37:08;;;;;;;;;;;6.30;99.90;;;;;;4958458;28;19928;-67
2023/12/14 12:39:34;;;;;;;;;;;6.30;99.90;;;;;;4984181;28;19925;-68
2023/12/14 12:42:00;;;;;;;;;;;6.30;99.90;;;;;;4963118;28;19936;-67
2023/12/14 12:44:26;;;;;;;;;;;6.30;99.90;;;;;;4984738;28;20438;-66
2023/12/14 12:46:56;;;;;;;;;;;6.30;99.90;;;;;;4951334;28;19924;-67
2023/12/14 12:49:22;;;;;;;;;;;6.30;99.90;;;;;;4962620;28;19925;-67
2023/12/14 12:51:48;;;;;;;;;;;6.20;99.90;;;;;;4955450;28;20473;-66
2023/12/14 12:54:14;;;;;;;;;;;6.20;99.90;;;;;;4964000;28;19932;-67
2023/12/14 12:56:41;;;;;;;;;;;6.20;99.90;;;;;;4956225;28;20057;-67
2023/12/14 12:59:07;;;;;;;;;;;6.10;99.90;;;;;;4962483;28;19926;-67
2023/12/14 13:01:33;;;;;;;;;;;6.10;99.90;;;;;;4945001;28;19952;-67
2023/12/14 13:03:59;;;;;;;;;;;6.00;99.90;;;;;;4966873;28;19932;-67
2023/12/14 13:06:28;;;;;;;;;;;6.10;99.90;;;;;;4957358;28;19924;-67
2023/12/14 13:08:54;;;;;;;;;;;6.10;99.90;;;;;;4991875;28;20573;-66
2023/12/14 13:11:19;;;;;;;;;;;6.10;99.90;;;;;;4964351;28;19929;-66
2023/12/14 13:13:45;;;;;;;;;;;6.20;99.90;;;;;;4986991;28;19935;-66
2023/12/14 13:16:16;;;;;;;;;;;6.20;99.90;;;;;;4960561;28;20478;-67
2023/12/14 13:18:43;;;;;;;;;;;6.20;99.90;;;;;;4989480;28;19925;-66
2023/12/14 13:21:09;;;;;;;;;;;6.10;99.90;;;;;;4969851;28;21043;-67
2023/12/14 13:23:35;;;;;;;;;;;6.10;99.90;;;;;;4989017;28;19925;-67
2023/12/14 13:26:00;;;;;;;;;;;6.10;99.90;;;;;;4953662;28;19936;-67
2023/12/14 13:28:26;;;;;;;;;;;6.10;99.90;;;;;;4983765;28;19925;-66
2023/12/14 13:30:54;;;;;;;;;;;6.10;99.90;;;;;;4953003;28;20494;-67
2023/12/14 13:33:19;;;;;;;;;;;6.00;99.90;;;;;;4993161;28;19925;-66
2023/12/14 13:35:46;;;;;;;;;;;6.10;99.90;;;;;;4952600;28;19925;-66
2023/12/14 13:38:13;;;;;;;;;;;6.10;99.90;;;;;;4964331;28;20601;-67
2023/12/14 13:40:39;;;;;;;;;;;6.10;99.90;;;;;;4951263;28;19933;-67
2023/12/14 13:43:09;;;;;;;;;;;6.10;99.90;;;;;;4980756;28;20420;-67
2023/12/14 13:45:37;;;;;;;;;;;6.10;99.90;;;;;;4954766;28;19937;-68
2023/12/14 13:48:03;;;;;;;;;;;6.10;99.90;;;;;;4995785;28;19925;-67
2023/12/14 13:50:29;;;;;;;;;;;6.10;99.90;;;;;;4952810;28;19925;-68
2023/12/14 13:52:55;;;;;;;;;;;6.00;99.90;;;;;;4999937;28;19925;-67
2023/12/14 13:55:21;;;;;;;;;;;5.90;99.90;;;;;;4954447;28;19929;-66
2023/12/14 13:57:47;;;;;;;;;;;6.00;99.90;;;;;;4984590;28;21159;-67
2023/12/14 14:00:13;;;;;;;;;;;5.90;99.90;;;;;;4978898;28;19952;-67
2023/12/14 14:02:39;;;;;;;;;;;5.90;99.90;;;;;;4977941;28;19932;-66
2023/12/14 14:05:05;;;;;;;;;;;5.90;99.90;;;;;;4982146;28;19925;-67
2023/12/14 14:07:31;;;;;;;;;;;5.90;99.90;;;;;;4966310;28;20016;-67
2023/12/14 14:09:57;;;;;;;;;;;5.80;99.90;;;;;;4978749;28;20555;-67
2023/12/14 14:12:23;;;;;;;;;;;5.90;99.90;;;;;;4970263;28;19928;-67
2023/12/14 14:14:49;;;;;;;;;;;5.80;99.90;;;;;;4978227;28;20372;-67
2023/12/14 14:17:15;;;;;;;;;;;5.80;99.90;;;;;;4968706;28;19929;-68
2023/12/14 14:19:41;;;;;;;;;;;5.80;99.90;;;;;;4982178;28;19932;-67
2023/12/14 14:22:08;;;;;;;;;;;5.70;99.90;;;;;;4963383;28;20386;-67
2023/12/14 14:24:34;;;;;;;;;;;5.80;99.90;;;;;;4982519;28;19929;-68